Marlow Heights, Maryland
Current Conditions -  °F | °C
As of 9:58 AM on Friday 28 Nov 2014 (Local Time) from KADW Reporting Station
Unknown Precip Unknown Precip  
Wind Chill: 29°   Ceiling: 4200
Heat Index: 38°   Visibility: 10mi
Dew Point: 22°   Wind: 14mph
Humidity: 52%   Direction: 320°NW
Pressure: 30.3"   Gusts: NA
Location:  38.8377°N, 76.9193°W
Report Text: KADW 281458Z AUTO 32012KT 10SM UP BKN042 BKN050 03/M06 A3030 RMK AO2 UPB1443 SLP270 P0000 60000 T00311058 52018 $
Loading
Personal Weather Stations






























Interactive Weather Map New forecast layout! Learn more

10-Day Weather Forecast

Advertisements
Track Severe Weather on mobile